Tufão CHAMPI 2021: trajetória, intensidade e histórico
28/06/2021, 18:00:00
19/06/2021, 18:00:00 – 28/06/2021, 18:00:00
Trajetória histórica
Acompanhe a evolução e o deslocamento de Tufão CHAMPI em 2021, com a trajetória completa registrada, ventos máximos sustentados de 65 nós, pressão central mínima e cronologia detalhada.
| Data | Hora | Tipo | Ventokm/h | PressãohPa |
|---|---|---|---|---|
| 28/06 | 18:00 | EXCiclone extratropical | -- | 996 |
| 28/06 | 15:00 | EXCiclone extratropical | -- | 995 |
| 28/06 | 12:00 | EXCiclone extratropical | -- | 994 |
| 28/06 | 09:00 | EXCiclone extratropical | -- | 994 |
| 28/06 | 06:00 | EXCiclone extratropical | 55 | 994 |
| 28/06 | 03:00 | EXCiclone extratropical | 55 | 994 |
| 28/06 | 00:00 | EXCiclone extratropical | 55 | 994 |
| 27/06 | 21:00 | EXCiclone extratropical | 55 | 995 |
| 27/06 | 18:00 | EXCiclone extratropical | 55 | 995 |
| 27/06 | 15:00 | TDDepressão tropical | 50 | 1001 |
| 27/06 | 12:00 | TSTempestade tropical | 45 | 1007 |
| 27/06 | 09:00 | TSTempestade tropical | 55 | 1004 |
| 27/06 | 06:00 | TSTempestade tropical | 65 | 1000 |
| 27/06 | 03:00 | TSTempestade tropical | 65 | 1000 |
| 27/06 | 00:00 | TSTempestade tropical | 65 | 1000 |
| 26/06 | 21:00 | TSTempestade tropical | 70 | 999 |
| 26/06 | 18:00 | TSTempestade tropical | 75 | 998 |
| 26/06 | 15:00 | TSTempestade tropical | 85 | 997 |
| 26/06 | 12:00 | STSTempestade tropical severa | 95 | 996 |
| 26/06 | 09:00 | TSTempestade tropical | 100 | 995 |
| 26/06 | 06:00 | STSTempestade tropical severa | 100 | 993 |
| 26/06 | 03:00 | TSTempestade tropical | 100 | 993 |
| 26/06 | 00:00 | STSTempestade tropical severa | 100 | 993 |
| 25/06 | 21:00 | TSTempestade tropical | 105 | 992 |
| 25/06 | 18:00 | STSTempestade tropical severa | 110 | 990 |
| 25/06 | 15:00 | TTufão | 115 | 989 |
| 25/06 | 12:00 | TTufão | 120 | 988 |
| 25/06 | 09:00 | TTufão | 120 | 988 |
| 25/06 | 06:00 | TTufão | 120 | 987 |
| 25/06 | 03:00 | TSTempestade tropical | 115 | 990 |
| 25/06 | 00:00 | STSTempestade tropical severa | 110 | 993 |
| 24/06 | 21:00 | TSTempestade tropical | 105 | 995 |
| 24/06 | 18:00 | STSTempestade tropical severa | 100 | 997 |
| 24/06 | 15:00 | TSTempestade tropical | 100 | 999 |
| 24/06 | 12:00 | STSTempestade tropical severa | 95 | 1000 |
| 24/06 | 09:00 | TSTempestade tropical | 95 | 999 |
| 24/06 | 06:00 | STSTempestade tropical severa | 95 | 997 |
| 24/06 | 03:00 | TSTempestade tropical | 90 | 1000 |
| 24/06 | 00:00 | STSTempestade tropical severa | 85 | 1002 |
| 23/06 | 21:00 | TSTempestade tropical | 85 | 1002 |
| 23/06 | 18:00 | TSTempestade tropical | 85 | 1002 |
| 23/06 | 15:00 | TSTempestade tropical | 80 | 1001 |
| 23/06 | 12:00 | TSTempestade tropical | 75 | 1000 |
| 23/06 | 09:00 | TSTempestade tropical | 75 | 1001 |
| 23/06 | 06:00 | TSTempestade tropical | 75 | 1002 |
| 23/06 | 03:00 | TDDepressão tropical | 65 | 1006 |
| 23/06 | 00:00 | TSTempestade tropical | 55 | 1009 |
| 22/06 | 21:00 | TDDepressão tropical | 55 | 1009 |
| 22/06 | 18:00 | TDDepressão tropical | 55 | 1009 |
| 22/06 | 15:00 | TDDepressão tropical | 55 | 1009 |
| 22/06 | 12:00 | TDDepressão tropical | 55 | 1009 |
| 22/06 | 09:00 | TSTempestade tropical | 60 | 1007 |
| 22/06 | 06:00 | TDDepressão tropical | 65 | 1004 |
| 22/06 | 03:00 | TSTempestade tropical | 65 | 1004 |
| 22/06 | 00:00 | TDDepressão tropical | 65 | 1004 |
| 21/06 | 21:00 | DBPerturbação tropical | 50 | 1007 |
| 21/06 | 18:00 | TDDepressão tropical | 35 | 1010 |
| 21/06 | 15:00 | TDDepressão tropical | 45 | 1008 |
| 21/06 | 12:00 | TDDepressão tropical | 55 | 1006 |
| 21/06 | 09:00 | DBPerturbação tropical | 45 | 1008 |
| 21/06 | 06:00 | TDDepressão tropical | 35 | 1009 |
| 21/06 | 03:00 | TDDepressão tropical | 45 | 1006 |
| 21/06 | 00:00 | TDDepressão tropical | 55 | 1002 |
| 20/06 | 21:00 | TDDepressão tropical | 55 | 1004 |
| 20/06 | 18:00 | TDDepressão tropical | 55 | 1005 |
| 20/06 | 15:00 | TDDepressão tropical | 55 | 1006 |
| 20/06 | 12:00 | TDDepressão tropical | 55 | 1006 |
| 20/06 | 09:00 | TDDepressão tropical | 50 | 1007 |
| 20/06 | 06:00 | TDDepressão tropical | 45 | 1007 |
| 20/06 | 03:00 | DBPerturbação tropical | 35 | 1008 |
| 20/06 | 00:00 | TDDepressão tropical | 30 | 1009 |
| 19/06 | 21:00 | DBPerturbação tropical | 30 | 1009 |
| 19/06 | 18:00 | DBPerturbação tropical | 30 | 1009 |
Cronologia de localização
73 Registos de localizaçãoTambém pode encontrar estas ferramentas úteis
A localização, a extensão e o estado de cada evento podem ser atualizados em momentos diferentes consoante a fonte. Confirme decisões importantes junto das autoridades oficiais de emergência.
Os registos de eventos provêm da NASA EONET e são complementados por registos de deslizamentos de terra do USGS FDSN. As análises e previsões de tempestades podem utilizar a NOAA NHC ou o JTWC, com registos históricos ATCF da UCAR/NCAR quando disponíveis. As imagens de satélite provêm da NASA Worldview/GIBS (GOES e Himawari) ou da EUMETSAT Meteosat, consoante a cobertura do mapa.
Fontes: NASA EONET · USGS · NOAA NHC · JTWC · UCAR/NCAR ATCF · NASA Worldview/GIBS · EUMETSAT Meteosat · OpenStreetMap contributors